Marshall, North Dakota
Current Conditions -  °F | °C
As of 12:35 AM on Thursday 23 Oct 2014 (Local Time) from KD57 Reporting Station
NA  
Wind Chill: 37°   Ceiling: NA
Heat Index: 37°   Visibility: 10mi
Dew Point: 30°   Wind: 0mph
Humidity: 75%   Direction: NA
Pressure: 29.91"   Gusts: NA
Location:  47.14°N, 102.33°W
Report Text: KD57 230635Z AUTO 00000KT 10SM 03/M01 A2991 RMK AO2 TSNO
Loading
Personal Weather Stations






























Interactive Weather Map
Tropical Storm Tracking
New forecast layout! Learn more

10-Day Weather Forecast

Advertisements
Track Severe Weather on mobile